createdAt,value
2024-04-17T00:01:10.682Z,10.70
2024-04-17T00:03:38.670Z,10.60
2024-04-17T00:06:06.358Z,10.60
2024-04-17T00:08:33.993Z,10.60
2024-04-17T00:11:02.027Z,10.60
2024-04-17T00:13:29.865Z,10.60
2024-04-17T00:16:03.143Z,10.50
2024-04-17T00:18:31.430Z,10.50
2024-04-17T00:20:59.199Z,10.50
2024-04-17T00:23:26.909Z,10.40
2024-04-17T00:25:54.575Z,10.40
2024-04-17T00:28:23.329Z,10.30
2024-04-17T00:30:51.041Z,10.30
2024-04-17T00:33:18.767Z,10.30
2024-04-17T00:35:46.529Z,10.30
2024-04-17T00:38:14.254Z,10.20
2024-04-17T00:40:42.131Z,10.20
2024-04-17T00:43:10.037Z,10.10
2024-04-17T00:45:41.812Z,10.10
2024-04-17T00:48:14.639Z,10.10
2024-04-17T00:50:47.638Z,10.00
2024-04-17T00:53:19.014Z,10.00
2024-04-17T00:55:48.505Z,10.00
2024-04-17T00:58:18.278Z,9.90
2024-04-17T01:00:45.817Z,9.80
2024-04-17T01:03:13.514Z,9.80
2024-04-17T01:05:42.294Z,9.80
2024-04-17T01:08:09.949Z,9.70
2024-04-17T01:10:37.673Z,9.70
2024-04-17T01:13:05.528Z,9.60
2024-04-17T01:15:33.171Z,9.60
2024-04-17T01:18:01.467Z,9.50
2024-04-17T01:20:29.201Z,9.50
2024-04-17T01:22:56.857Z,9.40
2024-04-17T01:25:24.637Z,9.40
2024-04-17T01:27:52.341Z,9.30
2024-04-17T01:30:20.081Z,9.30
2024-04-17T01:32:47.906Z,9.30
2024-04-17T01:35:15.651Z,9.20
2024-04-17T01:37:43.242Z,9.20
2024-04-17T01:40:11.653Z,9.20
2024-04-17T01:42:39.218Z,9.20
2024-04-17T01:45:07.543Z,9.10
2024-04-17T01:47:36.509Z,9.00
2024-04-17T01:50:08.251Z,9.00
2024-04-17T01:52:35.944Z,8.90
2024-04-17T01:55:03.766Z,8.90
2024-04-17T01:57:31.377Z,8.90
2024-04-17T01:59:59.052Z,8.80
2024-04-17T02:02:26.906Z,8.80
2024-04-17T02:04:54.615Z,8.80
2024-04-17T02:07:22.278Z,8.70
2024-04-17T02:09:52.634Z,8.70
2024-04-17T02:12:20.228Z,8.70
2024-04-17T02:14:47.793Z,8.60
2024-04-17T02:17:15.369Z,8.60
2024-04-17T02:19:43.129Z,8.60
2024-04-17T02:22:10.824Z,8.50
2024-04-17T02:24:38.747Z,8.50
2024-04-17T02:27:06.715Z,8.50
2024-04-17T02:29:34.440Z,8.40
2024-04-17T02:32:02.114Z,8.40
2024-04-17T02:34:29.710Z,8.40
2024-04-17T02:36:57.388Z,8.40
2024-04-17T02:39:25.223Z,8.40
2024-04-17T02:41:53.057Z,8.30
2024-04-17T02:44:20.650Z,8.30
2024-04-17T02:46:48.983Z,8.30
2024-04-17T02:49:16.787Z,8.30
2024-04-17T02:51:46.240Z,8.20
2024-04-17T02:54:14.406Z,8.20
2024-04-17T02:56:42.053Z,8.20
2024-04-17T02:59:09.778Z,8.20
2024-04-17T03:01:37.635Z,8.20
2024-04-17T03:04:05.390Z,8.10
2024-04-17T03:06:34.551Z,8.20
2024-04-17T03:09:02.248Z,8.10
2024-04-17T03:11:30.067Z,8.10
2024-04-17T03:13:57.748Z,8.10
2024-04-17T03:16:25.508Z,8.00
2024-04-17T03:18:53.288Z,8.00
2024-04-17T03:21:20.995Z,8.00
2024-04-17T03:23:48.555Z,8.00
2024-04-17T03:26:16.329Z,7.90
2024-04-17T03:28:43.944Z,8.00
2024-04-17T03:31:11.524Z,8.00
2024-04-17T03:33:39.150Z,7.90
2024-04-17T03:36:07.274Z,7.90
2024-04-17T03:38:34.867Z,7.90
2024-04-17T03:41:02.446Z,7.90
2024-04-17T03:43:30.439Z,7.90
2024-04-17T03:45:58.104Z,7.90
2024-04-17T03:48:25.761Z,7.80
2024-04-17T03:50:53.382Z,7.80
2024-04-17T03:53:21.634Z,7.80
2024-04-17T03:55:49.367Z,7.80
2024-04-17T03:58:16.997Z,7.80
2024-04-17T04:00:44.771Z,7.80
2024-04-17T04:03:12.330Z,7.80
2024-04-17T04:05:44.126Z,7.70
2024-04-17T04:08:12.247Z,7.80
2024-04-17T04:10:40.445Z,7.70
2024-04-17T04:13:08.685Z,7.70
2024-04-17T04:15:36.394Z,7.70
2024-04-17T04:18:04.267Z,7.70
2024-04-17T04:20:33.061Z,7.70
2024-04-17T04:23:00.753Z,7.70
2024-04-17T04:25:28.327Z,7.70
2024-04-17T04:27:56.110Z,7.70
2024-04-17T04:30:24.151Z,7.70
2024-04-17T04:32:51.997Z,7.70
2024-04-17T04:35:19.675Z,7.70
2024-04-17T04:37:47.312Z,7.70
2024-04-17T04:40:14.987Z,7.80
2024-04-17T04:42:42.621Z,7.70
2024-04-17T04:45:10.394Z,7.80
2024-04-17T04:47:38.186Z,7.70
2024-04-17T04:50:06.089Z,7.80
2024-04-17T04:52:33.835Z,7.70
2024-04-17T04:55:01.517Z,7.80
2024-04-17T04:57:28.985Z,7.80
2024-04-17T04:59:56.545Z,7.80
2024-04-17T05:02:24.367Z,7.80
2024-04-17T05:04:52.082Z,7.90
2024-04-17T05:07:19.819Z,7.90
2024-04-17T05:09:49.413Z,7.80
2024-04-17T05:12:17.050Z,7.90
2024-04-17T05:14:45.025Z,7.90
2024-04-17T05:17:12.790Z,7.90
2024-04-17T05:19:40.423Z,7.90
2024-04-17T05:22:08.047Z,7.90
2024-04-17T05:24:36.129Z,7.90
2024-04-17T05:27:03.771Z,7.90
2024-04-17T05:29:31.592Z,7.90
2024-04-17T05:31:59.539Z,7.90
2024-04-17T05:34:27.188Z,7.90
2024-04-17T05:36:54.904Z,7.90
2024-04-17T05:40:02.062Z,8.00
2024-04-17T05:42:29.821Z,7.90
2024-04-17T05:44:57.595Z,7.90
2024-04-17T05:47:25.608Z,7.90
2024-04-17T05:49:56.104Z,7.90
2024-04-17T05:52:25.800Z,7.90
2024-04-17T05:54:53.391Z,7.90
2024-04-17T05:57:21.236Z,7.90
2024-04-17T05:59:49.449Z,7.90
2024-04-17T06:02:17.073Z,7.90
2024-04-17T06:04:44.936Z,7.90
2024-04-17T06:07:12.694Z,7.90
2024-04-17T06:09:40.480Z,7.90
2024-04-17T06:12:08.120Z,7.90
2024-04-17T06:14:35.683Z,7.90
2024-04-17T06:17:03.626Z,7.90
2024-04-17T06:19:31.388Z,7.90
2024-04-17T06:21:59.318Z,7.90
2024-04-17T06:24:26.984Z,8.00
2024-04-17T06:26:54.618Z,8.00
2024-04-17T06:29:22.183Z,8.00
2024-04-17T06:31:50.966Z,8.00
2024-04-17T06:34:18.670Z,8.00
2024-04-17T06:36:46.284Z,8.10
2024-04-17T06:39:14.153Z,8.10
2024-04-17T06:41:51.714Z,8.10
2024-04-17T06:44:25.046Z,8.10
2024-04-17T06:46:52.738Z,8.20
2024-04-17T06:49:20.425Z,8.20
2024-04-17T06:51:48.124Z,8.30
2024-04-17T06:54:16.847Z,8.30
2024-04-17T06:56:44.633Z,8.30
2024-04-17T06:59:12.700Z,8.40
2024-04-17T07:01:40.706Z,8.40
2024-04-17T07:04:08.570Z,8.40
2024-04-17T07:06:38.784Z,8.50
2024-04-17T07:09:07.467Z,8.50
2024-04-17T07:11:35.807Z,8.50
2024-04-17T07:14:03.584Z,8.50
2024-04-17T07:16:31.511Z,8.50
2024-04-17T07:19:01.169Z,8.50
2024-04-17T07:21:28.899Z,8.50
2024-04-17T07:23:57.887Z,8.60
2024-04-17T07:26:25.694Z,8.60
2024-04-17T07:28:53.404Z,8.70
2024-04-17T07:31:22.128Z,8.70
2024-04-17T07:33:49.971Z,8.70
2024-04-17T07:36:17.935Z,8.80
2024-04-17T07:38:48.623Z,8.90
2024-04-17T07:41:18.396Z,8.90
2024-04-17T07:43:47.846Z,9.00
2024-04-17T07:46:15.846Z,9.10
2024-04-17T07:48:43.580Z,9.20
2024-04-17T07:51:11.312Z,9.20
2024-04-17T07:53:39.534Z,9.30
2024-04-17T07:56:07.271Z,9.40
2024-04-17T07:58:35.259Z,9.40
2024-04-17T08:01:03.356Z,9.50
2024-04-17T08:03:31.103Z,9.60
2024-04-17T08:05:58.719Z,9.70
2024-04-17T08:08:26.343Z,9.90
2024-04-17T08:10:54.131Z,10.00
2024-04-17T08:13:21.793Z,10.10
2024-04-17T08:15:56.102Z,10.20
2024-04-17T08:18:24.171Z,10.20
2024-04-17T08:20:58.418Z,10.30
2024-04-17T08:23:30.388Z,10.30
2024-04-17T08:26:00.957Z,10.40
2024-04-17T08:28:28.830Z,10.50
2024-04-17T08:30:56.680Z,10.50
2024-04-17T08:33:24.579Z,10.60
2024-04-17T08:35:52.402Z,10.60
2024-04-17T08:38:20.246Z,10.70
2024-04-17T08:40:48.123Z,10.80
2024-04-17T08:43:25.756Z,10.80
2024-04-17T08:45:55.617Z,10.90
2024-04-17T08:48:24.491Z,11.00
2024-04-17T08:50:53.432Z,11.10
2024-04-17T08:53:21.511Z,11.10
2024-04-17T08:55:49.710Z,11.20
2024-04-17T08:58:17.806Z,11.30
2024-04-17T09:00:53.067Z,11.40
2024-04-17T09:03:25.991Z,11.50
2024-04-17T09:05:56.823Z,11.40
2024-04-17T09:08:26.375Z,11.50
2024-04-17T09:10:56.752Z,11.50
2024-04-17T09:13:24.930Z,11.60
2024-04-17T09:15:52.693Z,11.70
2024-04-17T09:18:27.259Z,11.80
2024-04-17T09:20:56.458Z,11.80
2024-04-17T09:23:25.086Z,11.90
2024-04-17T09:25:56.278Z,12.00
2024-04-17T09:28:25.297Z,12.00
2024-04-17T09:30:53.013Z,12.10
2024-04-17T09:33:20.672Z,12.20
2024-04-17T09:35:48.415Z,12.30
2024-04-17T09:38:16.900Z,12.40
2024-04-17T09:40:48.375Z,12.50
2024-04-17T09:43:29.660Z,12.60
2024-04-17T09:46:03.632Z,12.70
2024-04-17T09:48:31.860Z,12.70
2024-04-17T09:51:04.336Z,12.70
2024-04-17T09:53:37.882Z,12.70
2024-04-17T09:56:13.371Z,12.70
2024-04-17T09:58:56.407Z,12.70
2024-04-17T10:01:32.552Z,12.60
2024-04-17T10:04:01.679Z,12.60
2024-04-17T10:06:30.655Z,12.60
2024-04-17T10:09:00.051Z,12.50
2024-04-17T10:11:30.199Z,12.50
2024-04-17T10:13:59.857Z,12.50
2024-04-17T10:16:27.826Z,12.50
2024-04-17T10:18:55.615Z,12.60
2024-04-17T10:21:27.644Z,12.60
2024-04-17T10:24:08.401Z,12.60
2024-04-17T10:26:46.152Z,12.70
2024-04-17T10:29:29.935Z,12.70
2024-04-17T10:31:57.804Z,12.70
2024-04-17T10:34:31.105Z,12.70
2024-04-17T10:37:03.851Z,12.80
2024-04-17T10:39:33.762Z,12.90
2024-04-17T10:42:01.938Z,13.00
2024-04-17T10:44:30.407Z,13.10
2024-04-17T10:47:06.276Z,13.30
2024-04-17T10:49:41.168Z,13.40
2024-04-17T10:52:09.825Z,13.50
2024-04-17T10:54:37.786Z,13.70
2024-04-17T10:57:07.110Z,13.70
2024-04-17T10:59:35.208Z,13.80
2024-04-17T11:02:03.042Z,13.90
2024-04-17T11:04:31.077Z,13.90
2024-04-17T11:06:58.976Z,13.90
2024-04-17T11:09:26.763Z,13.90
2024-04-17T11:11:54.554Z,14.00
2024-04-17T11:14:22.281Z,14.10
2024-04-17T11:16:49.956Z,14.30
2024-04-17T11:19:18.488Z,14.40
2024-04-17T11:21:46.456Z,14.70
2024-04-17T11:24:21.715Z,14.90
2024-04-17T11:26:49.622Z,15.10
2024-04-17T11:29:26.527Z,15.30
2024-04-17T11:32:01.556Z,15.40
2024-04-17T11:34:29.650Z,15.60
2024-04-17T11:37:05.316Z,15.70
2024-04-17T11:39:36.810Z,15.80
2024-04-17T11:42:06.292Z,15.90
2024-04-17T11:44:39.698Z,16.10
2024-04-17T11:47:15.840Z,16.20
2024-04-17T11:49:44.737Z,16.20
2024-04-17T11:52:14.358Z,16.30
2024-04-17T11:54:43.152Z,16.40
2024-04-17T11:57:14.707Z,16.50
2024-04-17T11:59:46.574Z,16.50
2024-04-17T12:02:14.610Z,16.60
2024-04-17T12:04:44.262Z,16.70
2024-04-17T12:07:12.527Z,16.90
2024-04-17T12:09:40.081Z,17.00
2024-04-17T12:12:08.676Z,17.20
2024-04-17T12:14:37.051Z,17.30
2024-04-17T12:17:05.792Z,17.40
2024-04-17T12:19:33.662Z,17.60
2024-04-17T12:22:01.654Z,17.70
2024-04-17T12:24:49.271Z,17.80
2024-04-17T12:27:17.330Z,17.90
2024-04-17T12:29:46.558Z,17.90
2024-04-17T12:32:14.283Z,18.00
2024-04-17T12:34:43.688Z,18.10
2024-04-17T12:37:14.786Z,18.20
2024-04-17T12:39:43.276Z,18.30
2024-04-17T12:42:12.653Z,18.40
2024-04-17T12:44:41.036Z,18.40
2024-04-17T12:47:08.880Z,18.50
2024-04-17T12:49:36.635Z,18.50
2024-04-17T12:52:04.672Z,18.40
2024-04-17T12:54:32.591Z,18.40
2024-04-17T12:57:00.180Z,18.50
2024-04-17T12:59:27.788Z,18.40
2024-04-17T13:01:55.559Z,18.50
2024-04-17T13:04:23.715Z,18.50
2024-04-17T13:06:53.582Z,18.60
2024-04-17T13:09:21.426Z,18.80
2024-04-17T13:11:49.286Z,18.90
2024-04-17T13:14:16.968Z,19.00
2024-04-17T13:16:45.990Z,19.10
2024-04-17T13:19:13.615Z,19.10
2024-04-17T13:21:41.272Z,19.20
2024-04-17T13:24:09.227Z,19.30
2024-04-17T13:26:36.969Z,19.30
2024-04-17T13:29:07.254Z,19.30
2024-04-17T13:31:35.970Z,19.40
2024-04-17T13:34:04.023Z,19.50
2024-04-17T13:36:31.702Z,19.50
2024-04-17T13:38:59.502Z,19.50
2024-04-17T13:41:27.209Z,19.50
2024-04-17T13:43:54.920Z,19.60
2024-04-17T13:46:25.772Z,19.60
2024-04-17T13:48:54.008Z,19.50
2024-04-17T13:51:21.746Z,19.40
2024-04-17T13:53:53.815Z,19.30
2024-04-17T13:56:24.761Z,19.30
2024-04-17T13:58:53.675Z,19.20
2024-04-17T14:01:21.532Z,19.10
2024-04-17T14:03:49.425Z,18.90
2024-04-17T14:06:19.656Z,18.80
2024-04-17T14:08:49.216Z,18.70
2024-04-17T14:11:17.903Z,18.50
2024-04-17T14:13:45.521Z,18.40
2024-04-17T14:16:13.131Z,18.20
2024-04-17T14:18:41.483Z,18.10
2024-04-17T14:21:19.585Z,17.90
2024-04-17T14:23:48.911Z,17.70
2024-04-17T14:26:22.186Z,17.60
2024-04-17T14:28:49.993Z,17.70
2024-04-17T14:31:17.660Z,17.80
2024-04-17T14:33:45.530Z,17.90
2024-04-17T14:36:13.623Z,17.90
2024-04-17T14:38:43.730Z,18.10
2024-04-17T14:41:11.967Z,18.40
2024-04-17T14:43:39.591Z,18.70
2024-04-17T14:46:07.216Z,18.90
2024-04-17T14:48:35.753Z,19.00
2024-04-17T14:51:08.794Z,19.20
2024-04-17T14:53:40.943Z,19.20
2024-04-17T14:56:12.365Z,19.20
2024-04-17T14:58:41.483Z,19.20
2024-04-17T15:01:14.083Z,19.20
2024-04-17T15:04:14.674Z,19.00
2024-04-17T15:06:46.526Z,18.90
2024-04-17T15:09:14.734Z,18.70
2024-04-17T15:11:42.614Z,18.50
2024-04-17T15:14:11.160Z,18.40
2024-04-17T15:16:42.234Z,18.10
2024-04-17T15:19:13.527Z,17.90
2024-04-17T15:21:44.014Z,17.70
2024-04-17T15:24:15.754Z,17.60
2024-04-17T15:26:43.703Z,17.60
2024-04-17T15:29:16.856Z,17.50
2024-04-17T15:31:44.585Z,17.40
2024-04-17T15:34:12.294Z,17.30
2024-04-17T15:36:40.213Z,17.30
2024-04-17T15:39:08.004Z,17.30
2024-04-17T15:41:35.661Z,17.20
2024-04-17T15:44:03.785Z,17.30
2024-04-17T15:46:31.394Z,17.20
2024-04-17T15:48:59.576Z,17.20
2024-04-17T15:51:27.771Z,17.10
2024-04-17T15:53:55.397Z,17.10
2024-04-17T15:56:25.490Z,17.00
2024-04-17T15:58:53.416Z,17.00
2024-04-17T16:01:21.498Z,16.90
2024-04-17T16:03:52.820Z,16.80
2024-04-17T16:06:23.285Z,16.80
2024-04-17T16:08:52.341Z,16.80
2024-04-17T16:11:21.668Z,16.70
2024-04-17T16:13:50.155Z,16.60
2024-04-17T16:16:18.626Z,16.60
2024-04-17T16:18:46.971Z,16.50
2024-04-17T16:21:18.774Z,16.50
2024-04-17T16:23:46.646Z,16.50
2024-04-17T16:26:16.423Z,16.40
2024-04-17T16:28:47.580Z,16.40
2024-04-17T16:31:16.746Z,16.40
2024-04-17T16:33:49.814Z,16.30
2024-04-17T16:36:18.152Z,16.30
2024-04-17T16:38:46.821Z,16.20
2024-04-17T16:41:16.838Z,16.20
2024-04-17T16:43:44.716Z,16.10
2024-04-17T16:46:15.384Z,16.10
2024-04-17T16:48:46.243Z,16.00
2024-04-17T16:51:13.931Z,16.10
2024-04-17T16:53:41.752Z,16.10
2024-04-17T16:56:09.849Z,16.10
2024-04-17T16:58:39.384Z,16.10
2024-04-17T17:01:09.150Z,16.10
2024-04-17T17:03:37.826Z,16.10
2024-04-17T17:06:07.784Z,16.10
2024-04-17T17:08:38.903Z,16.00
2024-04-17T17:11:07.447Z,16.00
2024-04-17T17:13:35.965Z,16.00
2024-04-17T17:16:05.237Z,16.00
2024-04-17T17:18:33.923Z,16.00
2024-04-17T17:21:06.980Z,15.90
2024-04-17T17:23:34.655Z,15.80
2024-04-17T17:26:02.425Z,15.80
2024-04-17T17:28:30.156Z,15.70
2024-04-17T17:30:59.373Z,15.70
2024-04-17T17:33:28.413Z,15.60
2024-04-17T17:36:00.239Z,15.50
2024-04-17T17:38:30.010Z,15.50
2024-04-17T17:41:05.542Z,15.40
2024-04-17T17:43:33.324Z,15.30
2024-04-17T17:46:11.629Z,15.20
2024-04-17T17:48:41.396Z,15.10
2024-04-17T17:51:10.034Z,15.00
2024-04-17T17:53:40.211Z,14.90
2024-04-17T17:56:09.618Z,14.80
2024-04-17T17:58:40.640Z,14.80
2024-04-17T18:01:08.631Z,14.70
2024-04-17T18:03:36.647Z,14.60
2024-04-17T18:06:08.405Z,14.50
2024-04-17T18:08:36.733Z,14.30
2024-04-17T18:11:05.114Z,14.20
2024-04-17T18:17:32.686Z,13.80
2024-04-17T18:20:02.502Z,13.60
2024-04-17T18:22:30.175Z,13.40
2024-04-17T18:24:57.779Z,13.30
2024-04-17T18:27:26.556Z,13.20
2024-04-17T18:29:54.154Z,13.10
2024-04-17T18:32:21.863Z,13.00
2024-04-17T18:34:49.499Z,12.90
2024-04-17T18:37:17.273Z,12.80
2024-04-17T18:39:52.112Z,12.70
2024-04-17T18:42:19.837Z,12.70
2024-04-17T18:44:47.457Z,12.60
2024-04-17T18:47:17.098Z,12.50
2024-04-17T18:49:47.903Z,12.50
2024-04-17T18:52:15.856Z,12.40
2024-04-17T18:54:44.772Z,12.40
2024-04-17T18:57:12.585Z,12.30
2024-04-17T18:59:40.384Z,12.30
2024-04-17T19:02:08.236Z,12.20
2024-04-17T19:04:37.153Z,12.20
2024-04-17T19:07:05.418Z,12.10
2024-04-17T19:09:33.661Z,12.10
2024-04-17T19:12:01.598Z,12.10
2024-04-17T19:14:29.884Z,12.00
2024-04-17T19:16:57.591Z,12.00
2024-04-17T19:19:25.612Z,12.00
2024-04-17T19:21:55.337Z,11.90
2024-04-17T19:24:23.266Z,11.90
2024-04-17T19:26:51.080Z,11.90
2024-04-17T19:29:34.348Z,11.90
2024-04-17T19:32:10.253Z,11.80
2024-04-17T19:34:38.328Z,11.80
2024-04-17T19:37:07.083Z,11.80
2024-04-17T19:39:38.244Z,11.80
2024-04-17T19:42:14.576Z,11.80
2024-04-17T19:44:49.242Z,11.70
2024-04-17T19:47:17.512Z,11.70
2024-04-17T19:49:46.640Z,11.70
2024-04-17T19:52:16.454Z,11.70
2024-04-17T19:54:48.217Z,11.70
2024-04-17T19:57:20.599Z,11.60
2024-04-17T19:59:48.758Z,11.60
2024-04-17T20:02:18.552Z,11.50
2024-04-17T20:04:50.001Z,11.50
2024-04-17T20:07:19.098Z,11.50
2024-04-17T20:09:46.971Z,11.40
2024-04-17T20:12:15.141Z,11.40
2024-04-17T20:14:48.574Z,11.40
2024-04-17T20:17:17.255Z,11.30
2024-04-17T20:19:45.110Z,11.30
2024-04-17T20:22:13.753Z,11.30
2024-04-17T20:24:42.706Z,11.30
2024-04-17T20:27:10.456Z,11.20
2024-04-17T20:29:41.267Z,11.20
2024-04-17T20:32:09.012Z,11.20
2024-04-17T20:34:36.722Z,11.10
2024-04-17T20:37:04.810Z,11.00
2024-04-17T20:39:34.016Z,11.00
2024-04-17T20:42:01.880Z,10.90
2024-04-17T20:44:29.593Z,10.90
2024-04-17T20:46:57.269Z,10.90
2024-04-17T20:49:25.082Z,10.80
2024-04-17T20:51:55.135Z,10.80
2024-04-17T20:54:22.928Z,10.70
2024-04-17T20:56:50.898Z,10.70
2024-04-17T20:59:18.575Z,10.60
2024-04-17T21:01:46.168Z,10.60
2024-04-17T21:04:14.237Z,10.50
2024-04-17T21:06:42.950Z,10.50
2024-04-17T21:09:12.552Z,10.40
2024-04-17T21:11:40.399Z,10.40
2024-04-17T21:14:08.080Z,10.40
2024-04-17T21:16:35.804Z,10.40
2024-04-17T21:19:03.537Z,10.30
2024-04-17T21:21:31.558Z,10.30
2024-04-17T21:24:00.062Z,10.30
2024-04-17T21:26:28.719Z,10.30
2024-04-17T21:28:56.454Z,10.30
2024-04-17T21:31:26.148Z,10.30
2024-04-17T21:33:54.263Z,10.30
2024-04-17T21:36:22.422Z,10.20
2024-04-17T21:38:50.447Z,10.30
2024-04-17T21:41:18.188Z,10.20
2024-04-17T21:43:47.235Z,10.20
2024-04-17T21:46:16.326Z,10.20
2024-04-17T21:48:44.765Z,10.20
2024-04-17T21:51:14.959Z,10.20
2024-04-17T21:53:42.671Z,10.20
2024-04-17T21:56:14.548Z,10.20
2024-04-17T21:58:42.634Z,10.20
2024-04-17T22:01:11.102Z,10.30
2024-04-17T22:03:40.382Z,10.20
2024-04-17T22:06:10.375Z,10.20
2024-04-17T22:08:39.665Z,10.20
2024-04-17T22:11:07.435Z,10.20
2024-04-17T22:13:35.163Z,10.20
2024-04-17T22:16:03.817Z,10.20
2024-04-17T22:18:31.441Z,10.20
2024-04-17T22:21:00.759Z,10.20
2024-04-17T22:23:29.269Z,10.10
2024-04-17T22:25:56.943Z,10.10
2024-04-17T22:28:24.709Z,10.10
2024-04-17T22:30:52.634Z,10.10
2024-04-17T22:33:21.147Z,10.10
2024-04-17T22:35:48.924Z,10.10
2024-04-17T22:38:16.704Z,10.10
2024-04-17T22:40:44.373Z,10.10
2024-04-17T22:43:12.903Z,10.00
2024-04-17T22:45:41.023Z,10.00
2024-04-17T22:48:08.680Z,10.00
2024-04-17T22:50:36.334Z,10.00
2024-04-17T22:53:03.931Z,10.00
2024-04-17T22:55:32.723Z,10.00
2024-04-17T22:58:00.499Z,10.00
2024-04-17T23:00:29.180Z,10.00
2024-04-17T23:02:56.800Z,10.00
2024-04-17T23:05:24.383Z,10.00
2024-04-17T23:07:53.529Z,10.00
2024-04-17T23:10:21.552Z,10.00
2024-04-17T23:12:49.298Z,10.10
2024-04-17T23:15:17.375Z,10.00
2024-04-17T23:17:45.107Z,10.00
2024-04-17T23:20:14.658Z,10.00
2024-04-17T23:22:42.305Z,10.10
2024-04-17T23:25:09.913Z,10.00
2024-04-17T23:27:37.654Z,10.00
2024-04-17T23:30:06.087Z,10.00
2024-04-17T23:32:33.737Z,10.00
2024-04-17T23:35:01.401Z,10.00
2024-04-17T23:37:29.087Z,10.00
2024-04-17T23:39:56.812Z,10.00
2024-04-17T23:42:24.482Z,9.90
2024-04-17T23:44:52.097Z,10.00
2024-04-17T23:47:19.700Z,9.90
2024-04-17T23:49:47.338Z,9.90
2024-04-17T23:52:16.797Z,9.90
2024-04-17T23:54:44.489Z,9.90
2024-04-17T23:57:12.194Z,9.90
2024-04-17T23:59:40.024Z,9.90
